Bolivar, Texas
Current Conditions -  °F | °C
As of 5:52 PM on Friday 24 Oct 2014 (Local Time) from KGLS Reporting Station
Clear Clear  
Wind Chill: 75°   Ceiling: Unl
Heat Index: 75°   Visibility: 10mi
Dew Point: 55°   Wind: 8mph
Humidity: 50%   Direction: 350°N
Pressure: 30.09"   Gusts: NA
Location:  29.4387°N, 94.6622°W
Report Text: KGLS 242252Z 35007KT 10SM CLR 24/13 A3009 RMK AO2 SLP189 T02390128
Loading
Personal Weather Stations






























Interactive Weather Map
Tropical Storm Tracking
New forecast layout! Learn more

10-Day Weather Forecast

Advertisements
Track Severe Weather on mobile